Chris Hadfield Airport
CYZR : now visible

Airfield :











YOU CAN JOIN US ON...

 
LOGIN :

Register | Disclaimer

   EN    FR    IT 

 









Legend :    VFR   Marginal VFR   IFR   Intensive IFR   Very Intensive IFR
Visi :
Ceiling :
>= 8 km
>= 3000ft
5 to 8 km
1000 to 3000 ft
1500m to 5 km
500 to 1000 ft
800 to 1500m
200 to 500 ft
< 800m
< 200 ft
Symbols :   Thunderstorms  Fog  Heavy snow  Heavy precipitations  Wind > 20 kt






- Airport Elevation : 594 ft
- IATA code : YZR


CYZR - Chris Hadfield

CURRENT METAR :
  • 211400Z AUTO 27008KT 9SM OVC050 05/M05 A3007 RMK SLP191

EXPIRED METARs :
  • 211300Z AUTO 26009KT 9SM OVC048 04/M04 A3007 RMK SLP191
  • 211200Z AUTO 26005KT 9SM OVC048 04/M05 A3007 RMK SLP189
  • 211100Z AUTO 28005KT 9SM OVC046 03/M04 A3007 RMK SLP190
  • 211000Z AUTO 27006KT 9SM OVC050 03/M05 A3007 RMK SLP191

TAF TAF CYZR
Valid from the 21 at 14:00 until the 22 at 02:00 UTC


211340Z 2114/2202 28008G18KT P6SM BKN060
BECMG 2114/2116 28010G20KT RMK FCST BASED ON AUTO OBS. NXT FCST BY 212000Z
CZYZ FIR / North America



MET'MAP, your aeronautical weather chart ! - Copyright ORBIFLY December 2007 - Disclaimer

ORBIFLY MET'MAP TEAM :

Programming & Development : Alexandra Zaïnal
Original concept : Baudouin d'Aumeries
Technical & hardware support : Manuel Goepfert
Assistance : Marc-Olivier Méhu




SOURCES & CREDITS :

   NOAA       Earth
Advisory